1877 Tropical Storm NOT_NAMED (1877267N21292)


IBTrACS version v04r00. Visit IBTrACS website for data access.
Please direct all questions to the IBTrACS Q and A forum

Storm track - Intensity - Wind Radii - Intensity Data - Source Data - All data

Summary Information

Storm ID 1877267N21292
Start Sep 24 00Z
Max Intensity 50 kt (Sep 28 00Z)
End Oct 5 12Z
ATCF IDs ,AL051877
Track status Best track data.

Storm track plot

Map of storm track

Intensity plots

Map of storm track

Radial wind information

No radial wind information for this storm


Position and Intensity Table

BASIN ISO_TIME_________ NATURE LAT LON WMO WIND USA WIND MLC WIND
degrees north degrees east kts kts kts
NA 1877-09-24 00:00:00 TS 21.20 -68.00 40 40
NA 03:00:00 TS 21.18 -68.50 40
NA 06:00:00 TS 21.20 -69.00 40 40
NA 09:00:00 TS 21.29 -69.50 40
NA 12:00:00 TS 21.40 -70.00 40 40
NA 15:00:00 TS 21.45 -70.49 40
NA 18:00:00 TS 21.50 -71.00 40 40
NA 21:00:00 TS 21.57 -71.51 40
NA 1877-09-25 00:00:00 TS 21.70 -72.10 40 40
NA 03:00:00 TS 21.93 -72.86 40
NA 06:00:00 TS 22.20 -73.60 40 40
NA 09:00:00 TS 22.46 -74.15 40
NA 12:00:00 TS 22.70 -74.60 40 40
NA 15:00:00 TS 22.90 -75.01 40
NA 18:00:00 TS 23.10 -75.40 40 40
NA 21:00:00 TS 23.33 -75.85 40
NA 1877-09-26 00:00:00 TS 23.60 -76.30 40 40
NA 03:00:00 TS 23.87 -76.73 40
NA 06:00:00 TS 24.20 -77.10 40 40
NA 09:00:00 TS 24.63 -77.39 40
NA 12:00:00 TS 25.10 -77.60 40 40
NA 15:00:00 TS 25.52 -77.77 40
NA 18:00:00 TS 25.90 -77.90 40 40
NA 21:00:00 TS 26.20 -78.01 40
NA 1877-09-27 00:00:00 TS 26.50 -78.10 40 40
NA 03:00:00 TS 26.89 -78.21 40
NA 06:00:00 TS 27.30 -78.30 40 40
NA 09:00:00 TS 27.62 -78.36 40
NA 12:00:00 TS 28.28 -78.13 40 40 40
NA 15:00:00 TS 29.05 -77.98 40 40
NA 18:00:00 TS 29.77 -77.85 40 40 40
NA 21:00:00 TS 30.33 -77.72 45 45
NA 1877-09-28 00:00:00 TS 30.77 -77.70 50 50 50
NA 03:00:00 TS 31.32 -77.64 50 50
NA 06:00:00 TS 31.87 -77.53 50 50 50
NA 09:00:00 TS 32.30 -77.39 50 50
NA 12:00:00 TS 32.67 -77.23 50 50 50
NA 15:00:00 TS 33.01 -77.10 50 50
NA 18:00:00 TS 33.33 -76.93 50 50 50
NA 21:00:00 TS 33.69 -76.72 50 50
NA 1877-09-29 00:00:00 TS 34.00 -76.47 50 50 50
NA 03:00:00 TS 34.22 -76.19 50 50
NA 06:00:00 TS 34.37 -75.87 50 50 50
NA 09:00:00 TS 34.48 -75.53 50 50
NA 12:00:00 TS 34.58 -75.12 50 50 50
NA 15:00:00 TS 34.61 -74.63 50 50
NA 18:00:00 TS 34.47 -74.23 50 50 50
NA 21:00:00 TS 33.85 -74.29 47
NA 1877-09-30 00:00:00 TS 33.50 -74.00 45
NA 03:00:00 TS 33.23 -73.71 42
NA 06:00:00 TS 33.00 -73.40 40
NA 09:00:00 TS 32.73 -73.06 37
NA 12:00:00 TS 32.50 -72.70 35
NA 15:00:00 TS 32.33 -72.31 32
NA 18:00:00 TS 32.20 -71.90 30
NA 21:00:00 TS 32.10 -71.50 30
NA 1877-10-01 00:00:00 TS 32.00 -71.10 30
NA 03:00:00 TS 31.85 -70.70 30
NA 06:00:00 TS 31.70 -70.30 30
NA 09:00:00 TS 31.59 -69.88 30
NA 12:00:00 TS 31.50 -69.50 30
NA 15:00:00 TS 31.43 -69.23 30
NA 18:00:00 ET 31.40 -69.00 30
NA 21:00:00 ET 31.40 -68.75 30
NA 1877-10-02 00:00:00 ET 31.40 -68.50 30
NA 03:00:00 ET 31.35 -68.25 30
NA 06:00:00 ET 31.30 -68.00 30
NA 09:00:00 ET 31.29 -67.77 30
NA 12:00:00 ET 31.30 -67.50 30
NA 15:00:00 ET 31.29 -67.16 30
NA 18:00:00 ET 31.30 -66.80 30
NA 21:00:00 ET 31.39 -66.49 30
NA 1877-10-03 00:00:00 ET 31.50 -66.20 30
NA 03:00:00 ET 31.56 -65.90 30
NA 06:00:00 ET 31.60 -65.60 30
NA 09:00:00 ET 31.64 -65.29 30
NA 12:00:00 ET 31.70 -65.00 30
NA 15:00:00 ET 31.79 -64.74 30
NA 18:00:00 ET 31.90 -64.50 30
NA 21:00:00 ET 32.00 -64.25 30
NA 1877-10-04 00:00:00 ET 32.10 -64.00 30
NA 03:00:00 ET 32.20 -63.75 30
NA 06:00:00 ET 32.30 -63.50 30
NA 09:00:00 ET 32.35 -63.26 30
NA 12:00:00 ET 32.50 -63.00 30
NA 15:00:00 ET 32.86 -62.66 30
NA 18:00:00 ET 33.30 -62.30 30
NA 21:00:00 ET 33.65 -61.99 30
NA 1877-10-05 00:00:00 ET 34.00 -61.70 30
NA 03:00:00 ET 34.40 -61.40 30
NA 06:00:00 ET 34.80 -61.10 30
NA 09:00:00 ET 35.16 -60.80 30
NA 12:00:00 ET 35.50 -60.50 30

Source Information

Agency Information
USA hurdat2-1851-2018-051019.txt:Line=3288:UNNAMED
TOKYO
CMA
HKO
NEWDELHI
REUNION
BOM
NADI
WELLINGTON
DS824
TD9636
TD9635
NEUMANN
MLC

All available IBTrACS Data

SEASON BASIN SUBBASIN ISO_TIME_________ NATURE LAT LON WMO WIND WMO AGENCY DIST2LAND LANDFALL IFLAG USA AGENCY USA ATCF_ID USA LAT USA LON USA STATUS USA WIND USA SSHS MLC LAT MLC LON MLC CLASS MLC WIND STORM SPEED STORM DIR
Year degrees north degrees east kts km km degrees north degrees east kts 1 degrees north degrees east kts kts degrees
1877 NA NA 1877-09-24 00:00:00 TS 21.20 -68.00 40 hurdat_atl 252 228 O_____________ hurdat_atl AL051877 21.20 -68.00 TS 40 0 9 267
1877 NA NA 03:00:00 TS 21.18 -68.50 228 207 P_____________ AL051877 21.18 -68.50 TS 40 0 9 270
1877 NA NA 06:00:00 TS 21.20 -69.00 40 hurdat_atl 207 193 O_____________ hurdat_atl AL051877 21.20 -69.00 TS 40 0 9 277
1877 NA NA 09:00:00 TS 21.29 -69.50 197 187 P_____________ AL051877 21.29 -69.50 TS 40 0 10 282
1877 NA NA 12:00:00 TS 21.40 -70.00 40 hurdat_atl 189 179 O_____________ hurdat_atl AL051877 21.40 -70.00 TS 40 0 9 280
1877 NA NA 15:00:00 TS 21.45 -70.49 179 179 P_____________ AL051877 21.45 -70.49 TS 40 0 9 276
1877 NA NA 18:00:00 TS 21.50 -71.00 40 hurdat_atl 190 161 O_____________ hurdat_atl AL051877 21.50 -71.00 TS 40 0 10 277
1877 NA NA 21:00:00 TS 21.57 -71.51 161 108 P_____________ AL051877 21.57 -71.51 TS 40 0 10 281
1877 NA NA 1877-09-25 00:00:00 TS 21.70 -72.10 40 hurdat_atl 108 78 O_____________ hurdat_atl AL051877 21.70 -72.10 TS 40 0 13 286
1877 NA NA 03:00:00 TS 21.93 -72.86 78 78 P_____________ AL051877 21.93 -72.86 TS 40 0 15 290
1877 NA NA 06:00:00 TS 22.20 -73.60 40 hurdat_atl 119 119 O_____________ hurdat_atl AL051877 22.20 -73.60 TS 40 0 13 294
1877 NA NA 09:00:00 TS 22.46 -74.15 164 164 P_____________ AL051877 22.46 -74.15 TS 40 0 11 298
1877 NA NA 12:00:00 TS 22.70 -74.60 40 hurdat_atl 201 201 O_____________ hurdat_atl AL051877 22.70 -74.60 TS 40 0 9 299
1877 NA NA 15:00:00 TS 22.90 -75.01 221 218 P_____________ AL051877 22.90 -75.01 TS 40 0 8 298
1877 NA NA 18:00:00 TS 23.10 -75.40 40 hurdat_atl 227 220 O_____________ hurdat_atl AL051877 23.10 -75.40 TS 40 0 9 299
1877 NA NA 21:00:00 TS 23.33 -75.85 217 174 P_____________ AL051877 23.33 -75.85 TS 40 0 10 301
1877 NA NA 1877-09-26 00:00:00 TS 23.60 -76.30 40 hurdat_atl 174 121 O_____________ hurdat_atl AL051877 23.60 -76.30 TS 40 0 10 304
1877 NA NA 03:00:00 TS 23.87 -76.73 121 69 P_____________ AL051877 23.87 -76.73 TS 40 0 9 309
1877 NA NA 06:00:00 TS 24.20 -77.10 40 hurdat_atl 69 32 O_____________ hurdat_atl AL051877 24.20 -77.10 TS 40 0 10 322
1877 NA NA 09:00:00 TS 24.63 -77.39 32 32 P_____________ AL051877 24.63 -77.39 TS 40 0 10 333
1877 NA NA 12:00:00 TS 25.10 -77.60 40 hurdat_atl 37 32 O_____________ hurdat_atl AL051877 25.10 -77.60 TS 40 0 10 339
1877 NA NA 15:00:00 TS 25.52 -77.77 48 48 P_____________ AL051877 25.52 -77.77 TS 40 0 8 341
1877 NA NA 18:00:00 TS 25.90 -77.90 40 hurdat_atl 89 89 O_____________ hurdat_atl AL051877 25.90 -77.90 TS 40 0 7 343
1877 NA NA 21:00:00 TS 26.20 -78.01 122 122 P_____________ AL051877 26.20 -78.01 TS 40 0 6 343
1877 NA NA 1877-09-27 00:00:00 TS 26.50 -78.10 40 hurdat_atl 156 156 O_____________ hurdat_atl AL051877 26.50 -78.10 TS 40 0 7 346
1877 NA NA 03:00:00 TS 26.89 -78.21 178 171 P_____________ AL051877 26.89 -78.21 TS 40 0 8 347
1877 NA NA 06:00:00 TS 27.30 -78.30 40 hurdat_atl 177 171 O_____________ hurdat_atl AL051877 27.30 -78.30 TS 40 0 7 350
1877 NA NA 09:00:00 TS 27.62 -78.36 180 180 P_____________ AL051877 27.62 -78.36 TS 40 0 10 9
1877 NA NA 12:00:00 TS 28.28 -78.13 40 hurdat_atl 235 234 O____________O hurdat_atl AL051877 28.00 -78.40 TS 40 0 30.50 -76.00 TS 40 15 13
1877 NA NA 15:00:00 TS 29.05 -77.98 249 249 P____________P AL051877 28.59 -78.46 TS 40 0 30.90 -76.04 TS 40 15 10
1877 NA NA 18:00:00 TS 29.77 -77.85 40 hurdat_atl 299 299 O____________O hurdat_atl AL051877 29.20 -78.50 TS 40 0 31.30 -76.10 TS 40 13 10
1877 NA NA 21:00:00 TS 30.33 -77.72 336 302 P____________P AL051877 29.64 -78.48 TS 45 0 31.71 -76.20 TS 45 10 7
1877 NA NA 1877-09-28 00:00:00 TS 30.77 -77.70 50 hurdat_atl 293 254 O____________O hurdat_atl AL051877 30.10 -78.40 TS 50 0 32.10 -76.30 TS 50 10 4
1877 NA NA 03:00:00 TS 31.32 -77.64 254 215 P____________P AL051877 30.75 -78.28 TS 50 0 32.46 -76.36 TS 50 11 7
1877 NA NA 06:00:00 TS 31.87 -77.53 50 hurdat_atl 215 186 O____________O hurdat_atl AL051877 31.40 -78.10 TS 50 0 32.80 -76.40 TS 50 10 12
1877 NA NA 09:00:00 TS 32.30 -77.39 186 158 P____________P AL051877 31.90 -77.86 TS 50 0 33.11 -76.45 TS 50 8 18
1877 NA NA 12:00:00 TS 32.67 -77.23 50 hurdat_atl 153 130 O____________O hurdat_atl AL051877 32.30 -77.60 TS 50 0 33.40 -76.50 TS 50 8 19
1877 NA NA 15:00:00 TS 33.01 -77.10 130 114 P____________P AL051877 32.66 -77.36 TS 50 0 33.70 -76.57 TS 50 7 21
1877 NA NA 18:00:00 TS 33.33 -76.93 50 hurdat_atl 121 109 O____________O hurdat_atl AL051877 33.00 -77.10 TS 50 0 34.00 -76.60 TS 50 7 25
1877 NA NA 21:00:00 TS 33.69 -76.72 109 78 P____________P AL051877 33.36 -76.81 TS 50 0 34.34 -76.55 TS 50 8 30
1877 NA NA 1877-09-29 00:00:00 TS 34.00 -76.47 50 hurdat_atl 78 58 O____________O hurdat_atl AL051877 33.70 -76.50 TS 50 0 34.60 -76.40 TS 50 7 40
1877 NA NA 03:00:00 TS 34.22 -76.19 62 57 P____________P AL051877 33.98 -76.22 TS 50 0 34.70 -76.12 TS 50 6 54
1877 NA NA 06:00:00 TS 34.37 -75.87 50 hurdat_atl 64 64 O____________O hurdat_atl AL051877 34.20 -75.90 TS 50 0 34.70 -75.80 TS 50 6 64
1877 NA NA 09:00:00 TS 34.48 -75.53 85 85 P____________P AL051877 34.35 -75.52 TS 50 0 34.74 -75.56 TS 50 7 71
1877 NA NA 12:00:00 TS 34.58 -75.12 50 hurdat_atl 114 114 O____________O hurdat_atl AL051877 34.50 -75.00 TS 50 0 34.70 -75.30 TS 50 8 80
1877 NA NA 15:00:00 TS 34.61 -74.63 149 149 P____________P AL051877 34.73 -74.30 TS 50 0 34.50 -74.96 TS 50 7 99
1877 NA NA 18:00:00 TS 34.47 -74.23 50 hurdat_atl 183 183 O____________O hurdat_atl AL051877 35.00 -73.50 TS 50 0 34.20 -74.60 TS 50 8 160
1877 NA NA 21:00:00 TS 33.85 -74.29 220 220 _____________P AL051877 TS -1 33.85 -74.29 TS 47 10 169
1877 NA NA 1877-09-30 00:00:00 TS 33.50 -74.00 262 262 _____________O 33.50 -74.00 TS 45 8 142
1877 NA NA 03:00:00 TS 33.23 -73.71 305 305 _____________P 33.23 -73.71 TS 42 7 135
1877 NA NA 06:00:00 TS 33.00 -73.40 340 340 _____________O 33.00 -73.40 TS 40 7 133
1877 NA NA 09:00:00 TS 32.73 -73.06 383 383 _____________P 32.73 -73.06 TS 37 8 130
1877 NA NA 12:00:00 TS 32.50 -72.70 426 426 _____________O 32.50 -72.70 TS 35 8 123
1877 NA NA 15:00:00 TS 32.33 -72.31 469 469 _____________P 32.33 -72.31 TS 32 7 114
1877 NA NA 18:00:00 TS 32.20 -71.90 506 506 _____________O 32.20 -71.90 TD 30 7 108
1877 NA NA 21:00:00 TS 32.10 -71.50 542 542 _____________P 32.10 -71.50 TD 30 7 106
1877 NA NA 1877-10-01 00:00:00 TS 32.00 -71.10 579 579 _____________O 32.00 -71.10 TD 30 7 110
1877 NA NA 03:00:00 TS 31.85 -70.70 623 623 _____________P 31.85 -70.70 TD 30 7 114
1877 NA NA 06:00:00 TS 31.70 -70.30 660 660 _____________O 31.70 -70.30 TD 30 7 111
1877 NA NA 09:00:00 TS 31.59 -69.88 697 697 _____________P 31.59 -69.88 TD 30 7 106
1877 NA NA 12:00:00 TS 31.50 -69.50 732 732 _____________O 31.50 -69.50 TD 30 6 105
1877 NA NA 15:00:00 TS 31.43 -69.23 761 761 _____________P 31.43 -69.23 TD 30 4 103
1877 NA NA 18:00:00 ET 31.40 -69.00 775 775 _____________O 31.40 -69.00 EX 30 4 95
1877 NA NA 21:00:00 ET 31.40 -68.75 789 789 _____________P 31.40 -68.75 EX 30 4 90
1877 NA NA 1877-10-02 00:00:00 ET 31.40 -68.50 811 811 _____________O 31.40 -68.50 EX 30 4 97
1877 NA NA 03:00:00 ET 31.35 -68.25 840 840 _____________P 31.35 -68.25 EX 30 4 103
1877 NA NA 06:00:00 ET 31.30 -68.00 855 855 _____________O 31.30 -68.00 EX 30 4 98
1877 NA NA 09:00:00 ET 31.29 -67.77 870 870 _____________P 31.29 -67.77 EX 30 4 90
1877 NA NA 12:00:00 ET 31.30 -67.50 893 893 _____________O 31.30 -67.50 EX 30 5 91
1877 NA NA 15:00:00 ET 31.29 -67.16 916 916 _____________P 31.29 -67.16 EX 30 6 90
1877 NA NA 18:00:00 ET 31.30 -66.80 947 947 _____________O 31.30 -66.80 EX 30 6 79
1877 NA NA 21:00:00 ET 31.39 -66.49 965 965 _____________P 31.39 -66.49 EX 30 5 69
1877 NA NA 1877-10-03 00:00:00 ET 31.50 -66.20 983 983 _____________O 31.50 -66.20 EX 30 5 72
1877 NA NA 03:00:00 ET 31.56 -65.90 1001 1001 _____________P 31.56 -65.90 EX 30 5 79
1877 NA NA 06:00:00 ET 31.60 -65.60 1026 1026 _____________O 31.60 -65.60 EX 30 5 81
1877 NA NA 09:00:00 ET 31.64 -65.29 1050 1050 _____________P 31.64 -65.29 EX 30 5 79
1877 NA NA 12:00:00 ET 31.70 -65.00 1070 1070 _____________O 31.70 -65.00 EX 30 5 72
1877 NA NA 15:00:00 ET 31.79 -64.74 1090 1090 _____________P 31.79 -64.74 EX 30 5 65
1877 NA NA 18:00:00 ET 31.90 -64.50 1102 1102 _____________O 31.90 -64.50 EX 30 5 64
1877 NA NA 21:00:00 ET 32.00 -64.25 1122 1122 _____________P 32.00 -64.25 EX 30 5 65
1877 NA NA 1877-10-04 00:00:00 ET 32.10 -64.00 1135 1135 _____________O 32.10 -64.00 EX 30 5 65
1877 NA NA 03:00:00 ET 32.20 -63.75 1156 1156 _____________P 32.20 -63.75 EX 30 5 65
1877 NA NA 06:00:00 ET 32.30 -63.50 1169 1169 _____________O 32.30 -63.50 EX 30 4 69
1877 NA NA 09:00:00 ET 32.35 -63.26 1182 1182 _____________P 32.35 -63.26 EX 30 5 65
1877 NA NA 12:00:00 ET 32.50 -63.00 1196 1181 _____________O 32.50 -63.00 EX 30 7 45
1877 NA NA 15:00:00 ET 32.86 -62.66 1171 1153 _____________P 32.86 -62.66 EX 30 10 36
1877 NA NA 18:00:00 ET 33.30 -62.30 1153 1136 _____________O 33.30 -62.30 EX 30 10 35
1877 NA NA 21:00:00 ET 33.65 -61.99 1138 1102 _____________P 33.65 -61.99 EX 30 9 35
1877 NA NA 1877-10-05 00:00:00 ET 34.00 -61.70 1102 1067 _____________O 34.00 -61.70 EX 30 9 33
1877 NA NA 03:00:00 ET 34.40 -61.40 1067 1033 _____________P 34.40 -61.40 EX 30 9 32
1877 NA NA 06:00:00 ET 34.80 -61.10 1033 1007 _____________O 34.80 -61.10 EX 30 9 33
1877 NA NA 09:00:00 ET 35.16 -60.80 1000 980 _____________P 35.16 -60.80 EX 30 9 35
1877 NA NA 12:00:00 ET 35.50 -60.50 980 _____________O 35.50 -60.50 EX 30 8 36